createdAt,value
2017-08-11T00:02:07.865Z,88.20
2017-08-11T00:04:33.810Z,88.80
2017-08-11T00:07:00.495Z,89.40
2017-08-11T00:09:26.441Z,89.40
2017-08-11T00:11:52.380Z,90.40
2017-08-11T00:14:19.069Z,90.00
2017-08-11T00:16:45.001Z,90.20
2017-08-11T00:19:10.944Z,90.30
2017-08-11T00:21:36.882Z,90.00
2017-08-11T00:24:02.837Z,90.00
2017-08-11T00:26:28.781Z,90.50
2017-08-11T00:28:55.484Z,90.10
2017-08-11T00:31:21.494Z,90.10
2017-08-11T00:33:47.445Z,89.70
2017-08-11T00:36:13.373Z,90.20
2017-08-11T00:38:39.308Z,89.90
2017-08-11T00:41:05.242Z,89.20
2017-08-11T00:43:31.182Z,89.50
2017-08-11T00:45:57.866Z,89.70
2017-08-11T00:48:23.808Z,89.60
2017-08-11T00:50:49.764Z,89.30
2017-08-11T00:53:15.702Z,89.60
2017-08-11T00:55:42.401Z,88.40
2017-08-11T00:58:08.369Z,88.40
2017-08-11T01:00:34.318Z,88.50
2017-08-11T01:03:01.003Z,90.00
2017-08-11T01:05:27.036Z,90.00
2017-08-11T01:07:52.973Z,90.20
2017-08-11T01:10:18.947Z,90.00
2017-08-11T01:15:35.727Z,90.20
2017-08-11T01:18:01.683Z,90.60
2017-08-11T01:20:28.373Z,92.40
2017-08-11T01:22:54.318Z,92.00
2017-08-11T01:25:20.324Z,91.30
2017-08-11T01:27:46.270Z,91.20
2017-08-11T01:30:12.196Z,91.30
2017-08-11T01:32:38.177Z,91.70
2017-08-11T01:35:16.633Z,91.80
2017-08-11T01:37:42.569Z,91.60
2017-08-11T01:40:08.517Z,91.40
2017-08-11T01:42:34.461Z,91.40
2017-08-11T01:45:00.384Z,91.60
2017-08-11T01:47:26.337Z,91.10
2017-08-11T01:50:17.817Z,90.80
2017-08-11T01:52:43.743Z,90.80
2017-08-11T01:55:09.706Z,90.90
2017-08-11T01:57:35.678Z,91.00
2017-08-11T02:00:01.618Z,90.70
2017-08-11T02:02:27.603Z,90.70
2017-08-11T02:04:53.543Z,92.00
2017-08-11T02:07:19.458Z,91.40
2017-08-11T02:09:45.427Z,91.00
2017-08-11T02:12:11.369Z,91.10
2017-08-11T02:14:37.318Z,90.60
2017-08-11T02:17:03.329Z,90.50
2017-08-11T02:19:29.292Z,91.30
2017-08-11T02:21:55.226Z,91.00
2017-08-11T02:24:21.181Z,91.10
2017-08-11T02:26:47.151Z,90.90
2017-08-11T02:29:13.842Z,90.50
2017-08-11T02:31:39.774Z,90.50
2017-08-11T02:34:05.745Z,90.40
2017-08-11T02:36:32.429Z,90.70
2017-08-11T02:39:03.997Z,90.60
2017-08-11T02:41:29.940Z,90.70
2017-08-11T02:43:55.882Z,90.20
2017-08-11T02:46:21.880Z,91.00
2017-08-11T02:48:47.850Z,91.50
2017-08-11T02:51:14.525Z,91.00
2017-08-11T02:53:41.198Z,90.70
2017-08-11T02:56:07.163Z,90.60
2017-08-11T02:58:33.101Z,90.50
2017-08-11T03:01:00.071Z,91.00
2017-08-11T03:03:26.007Z,91.00
2017-08-11T03:05:51.948Z,91.20
2017-08-11T03:08:17.879Z,91.20
2017-08-11T03:10:43.861Z,91.20
2017-08-11T03:13:09.789Z,91.20
2017-08-11T03:15:35.727Z,91.90
2017-08-11T03:18:02.418Z,92.00
2017-08-11T03:20:28.381Z,92.00
2017-08-11T03:22:55.083Z,92.20
2017-08-11T03:25:21.041Z,92.20
2017-08-11T03:27:46.976Z,91.90
2017-08-11T03:30:12.924Z,91.70
2017-08-11T03:32:39.597Z,91.40
2017-08-11T03:35:05.525Z,91.40
2017-08-11T03:37:31.472Z,91.20
2017-08-11T03:39:57.405Z,91.40
2017-08-11T03:42:23.365Z,91.00
2017-08-11T03:44:49.321Z,90.90
2017-08-11T03:47:15.261Z,91.40
2017-08-11T03:49:41.193Z,91.50
2017-08-11T03:52:08.080Z,91.60
2017-08-11T03:54:33.993Z,91.60
2017-08-11T03:56:59.959Z,91.70
2017-08-11T03:59:25.962Z,91.80
2017-08-11T04:01:51.890Z,91.80
2017-08-11T04:04:17.819Z,91.50
2017-08-11T04:06:43.785Z,91.40
2017-08-11T04:09:10.339Z,91.00
2017-08-11T04:11:36.325Z,91.30
2017-08-11T04:14:02.259Z,91.40
2017-08-11T04:16:28.205Z,91.50
2017-08-11T04:18:54.142Z,91.50
2017-08-11T04:21:20.078Z,91.40
2017-08-11T04:23:46.010Z,92.00
2017-08-11T04:26:11.937Z,91.30
2017-08-11T04:28:37.874Z,91.70
2017-08-11T04:31:03.826Z,91.90
2017-08-11T04:33:29.776Z,92.00
2017-08-11T04:35:56.527Z,91.80
2017-08-11T04:38:23.208Z,91.50
2017-08-11T04:40:49.146Z,91.50
2017-08-11T04:43:15.073Z,91.60
2017-08-11T04:45:41.033Z,91.10
2017-08-11T04:48:06.961Z,91.30
2017-08-11T04:50:32.892Z,91.40
2017-08-11T04:52:58.813Z,91.20
2017-08-11T04:55:24.756Z,91.20
2017-08-11T04:57:50.681Z,90.90
2017-08-11T05:00:16.625Z,90.90
2017-08-11T05:02:43.321Z,90.50
2017-08-11T05:05:09.252Z,90.50
2017-08-11T05:07:35.183Z,90.40
2017-08-11T05:10:01.101Z,90.90
2017-08-11T05:12:27.136Z,90.70
2017-08-11T05:14:53.103Z,90.30
2017-08-11T05:17:21.994Z,90.20
2017-08-11T05:22:39.182Z,90.40
2017-08-11T05:25:05.131Z,90.30
2017-08-11T05:27:31.065Z,90.10
2017-08-11T05:29:57.024Z,89.70
2017-08-11T05:32:23.711Z,90.10
2017-08-11T05:34:49.663Z,89.40
2017-08-11T05:37:15.601Z,89.00
2017-08-11T05:39:41.590Z,89.40
2017-08-11T05:42:07.521Z,89.10
2017-08-11T05:44:33.466Z,89.30
2017-08-11T05:46:59.426Z,89.70
2017-08-11T05:49:26.125Z,90.30
2017-08-11T05:51:52.076Z,90.30
2017-08-11T05:54:18.010Z,91.30
2017-08-11T05:56:43.945Z,91.00
2017-08-11T05:59:10.642Z,91.10
2017-08-11T06:01:36.617Z,90.80
2017-08-11T06:04:02.561Z,91.00
2017-08-11T06:06:29.228Z,91.60
2017-08-11T06:08:55.177Z,91.60
2017-08-11T06:11:21.121Z,92.10
2017-08-11T06:13:47.076Z,91.90
2017-08-11T06:16:13.078Z,92.00
2017-08-11T06:18:39.051Z,92.00
2017-08-11T06:21:05.029Z,92.70
2017-08-11T06:23:31.053Z,93.60
2017-08-11T06:25:57.022Z,94.70
2017-08-11T06:28:23.732Z,95.30
2017-08-11T06:30:49.688Z,95.30
2017-08-11T06:33:16.381Z,95.20
2017-08-11T06:35:42.329Z,95.20
2017-08-11T06:38:15.992Z,95.10
2017-08-11T06:40:41.974Z,94.70
2017-08-11T06:43:07.930Z,94.60
2017-08-11T06:45:34.596Z,94.50
2017-08-11T06:48:00.661Z,94.50
2017-08-11T06:50:26.620Z,94.00
2017-08-11T06:52:53.325Z,94.70
2017-08-11T06:55:19.253Z,94.70
2017-08-11T06:57:45.200Z,94.90
2017-08-11T07:00:11.170Z,94.60
2017-08-11T07:02:37.865Z,94.40
2017-08-11T07:05:03.832Z,94.30
2017-08-11T07:07:29.792Z,94.60
2017-08-11T07:09:55.843Z,95.10
2017-08-11T07:12:21.831Z,95.00
2017-08-11T07:14:47.771Z,94.70
2017-08-11T07:17:13.759Z,94.90
2017-08-11T07:19:39.706Z,94.80
2017-08-11T07:22:06.412Z,95.00
2017-08-11T07:24:32.368Z,95.00
2017-08-11T07:26:58.302Z,95.60
2017-08-11T07:29:25.002Z,96.60
2017-08-11T07:31:50.934Z,96.60
2017-08-11T07:34:16.890Z,96.90
2017-08-11T07:36:42.833Z,96.30
2017-08-11T07:39:09.574Z,95.50
2017-08-11T07:41:35.509Z,95.50
2017-08-11T07:44:02.242Z,95.60
2017-08-11T07:46:29.301Z,96.00
2017-08-11T07:48:55.271Z,96.00
2017-08-11T07:51:21.279Z,95.70
2017-08-11T07:53:47.238Z,95.40
2017-08-11T07:56:13.180Z,95.10
2017-08-11T07:58:39.123Z,95.20
2017-08-11T08:01:05.086Z,95.50
2017-08-11T08:03:31.034Z,95.60
2017-08-11T08:06:21.369Z,95.80
2017-08-11T08:08:48.066Z,95.70
2017-08-11T08:14:04.720Z,95.90
2017-08-11T08:16:30.694Z,95.40
2017-08-11T08:18:56.621Z,95.50
2017-08-11T08:21:22.533Z,95.20
2017-08-11T08:23:49.184Z,95.40
2017-08-11T08:26:15.120Z,95.00
2017-08-11T08:28:41.046Z,95.00
2017-08-11T08:31:06.974Z,94.80
2017-08-11T08:33:32.901Z,94.50
2017-08-11T08:35:58.843Z,94.60
2017-08-11T08:38:29.665Z,94.40
2017-08-11T08:40:55.767Z,93.90
2017-08-11T08:43:22.456Z,93.30
2017-08-11T08:45:49.192Z,93.30
2017-08-11T08:48:15.116Z,93.30
2017-08-11T08:50:44.789Z,93.60
2017-08-11T08:53:10.709Z,93.10
2017-08-11T08:55:36.647Z,93.10
2017-08-11T08:58:03.326Z,93.60
2017-08-11T09:00:29.264Z,93.20
2017-08-11T09:02:55.188Z,93.20
2017-08-11T09:05:21.134Z,92.90
2017-08-11T09:07:47.150Z,92.70
2017-08-11T09:10:13.176Z,92.70
2017-08-11T09:12:47.407Z,92.70
2017-08-11T09:15:13.346Z,92.40
2017-08-11T09:17:39.287Z,92.50
2017-08-11T09:20:05.281Z,92.50
2017-08-11T09:22:31.217Z,92.40
2017-08-11T09:25:10.556Z,93.10
2017-08-11T09:27:43.653Z,92.50
2017-08-11T09:30:22.153Z,92.40
2017-08-11T09:33:00.520Z,92.80
2017-08-11T09:35:39.712Z,92.80
2017-08-11T09:38:05.704Z,92.70
2017-08-11T09:40:31.674Z,92.20
2017-08-11T09:42:57.586Z,92.30
2017-08-11T09:45:23.530Z,92.40
2017-08-11T09:47:49.454Z,92.10
2017-08-11T09:50:15.464Z,91.10
2017-08-11T09:52:42.916Z,91.10
2017-08-11T09:55:09.953Z,91.00
2017-08-11T09:57:35.885Z,90.60
2017-08-11T10:00:01.817Z,91.20
2017-08-11T10:02:27.749Z,91.30
2017-08-11T10:04:53.717Z,90.50
2017-08-11T10:07:19.657Z,90.90
2017-08-11T10:09:45.676Z,91.00
2017-08-11T10:12:11.626Z,91.00
2017-08-11T10:14:38.297Z,90.70
2017-08-11T10:17:04.301Z,90.70
2017-08-11T10:19:31.921Z,90.60
2017-08-11T10:21:57.863Z,90.50
2017-08-11T10:24:23.802Z,90.90
2017-08-11T10:26:49.750Z,90.90
2017-08-11T10:29:16.532Z,91.10
2017-08-11T10:31:42.467Z,91.10
2017-08-11T10:34:08.440Z,91.40
2017-08-11T10:36:34.381Z,91.50
2017-08-11T10:39:01.061Z,92.10
2017-08-11T10:41:27.018Z,92.00
2017-08-11T10:43:52.988Z,91.80
2017-08-11T10:46:18.930Z,91.50
2017-08-11T10:48:44.860Z,92.00
2017-08-11T10:51:10.786Z,91.90
2017-08-11T10:53:36.710Z,91.80
2017-08-11T10:56:02.614Z,92.50
2017-08-11T10:58:29.289Z,91.90
2017-08-11T11:00:55.211Z,91.90
2017-08-11T11:03:21.174Z,92.40
2017-08-11T11:05:47.160Z,91.90
2017-08-11T11:08:13.069Z,92.10
2017-08-11T11:10:39.761Z,92.50
2017-08-11T11:13:05.710Z,92.60
2017-08-11T11:15:36.858Z,92.10
2017-08-11T11:18:02.823Z,92.30
2017-08-11T11:20:28.766Z,92.50
2017-08-11T11:22:54.682Z,92.50
2017-08-11T11:25:20.610Z,92.60
2017-08-11T11:27:46.592Z,92.70
2017-08-11T11:30:12.641Z,92.10
2017-08-11T11:32:39.362Z,92.50
2017-08-11T11:35:05.293Z,92.50
2017-08-11T11:37:31.658Z,92.50
2017-08-11T11:39:58.416Z,92.50
2017-08-11T11:42:25.103Z,93.50
2017-08-11T11:44:51.078Z,93.80
2017-08-11T11:47:17.786Z,92.90
2017-08-11T11:49:43.778Z,92.90
2017-08-11T11:52:09.713Z,91.90
2017-08-11T11:54:35.678Z,91.70
2017-08-11T11:57:01.621Z,92.20
2017-08-11T11:59:28.293Z,91.70
2017-08-11T12:01:54.227Z,91.70
2017-08-11T12:04:20.171Z,91.80
2017-08-11T12:06:46.153Z,91.90
2017-08-11T12:09:12.086Z,91.50
2017-08-11T12:11:38.845Z,91.80
2017-08-11T12:14:06.226Z,92.00
2017-08-11T12:16:33.611Z,92.00
2017-08-11T12:18:59.552Z,91.70
2017-08-11T12:21:25.483Z,92.10
2017-08-11T12:23:51.408Z,91.30
2017-08-11T12:26:17.342Z,91.70
2017-08-11T12:28:43.266Z,91.90
2017-08-11T12:31:09.213Z,91.50
2017-08-11T12:33:35.953Z,91.90
2017-08-11T12:36:02.627Z,91.40
2017-08-11T12:38:28.579Z,91.40
2017-08-11T12:40:54.510Z,91.40
2017-08-11T12:43:20.514Z,91.60
2017-08-11T12:45:46.454Z,91.50
2017-08-11T12:48:12.371Z,91.60
2017-08-11T12:50:38.324Z,92.20
2017-08-11T12:53:04.321Z,91.80
2017-08-11T12:55:30.274Z,92.10
2017-08-11T12:57:56.296Z,92.60
2017-08-11T13:00:22.295Z,92.80
2017-08-11T13:02:49.014Z,92.90
2017-08-11T13:05:15.213Z,92.90
2017-08-11T13:07:41.130Z,93.50
2017-08-11T13:10:09.061Z,93.40
2017-08-11T13:12:35.048Z,93.20
2017-08-11T13:15:01.015Z,93.80
2017-08-11T13:17:28.251Z,93.40
2017-08-11T13:19:55.053Z,93.00
2017-08-11T13:22:23.174Z,93.20
2017-08-11T13:24:49.151Z,93.20
2017-08-11T13:27:15.116Z,92.90
2017-08-11T13:29:41.038Z,93.10
2017-08-11T13:32:06.993Z,93.00
2017-08-11T13:34:32.941Z,93.10
2017-08-11T13:36:58.902Z,92.90
2017-08-11T13:39:26.855Z,92.90
2017-08-11T13:41:53.519Z,93.30
2017-08-11T13:44:19.496Z,93.30
2017-08-11T13:46:45.426Z,92.60
2017-08-11T13:49:11.373Z,92.40
2017-08-11T13:51:38.046Z,92.90
2017-08-11T13:54:04.030Z,92.90
2017-08-11T13:56:29.953Z,93.20
2017-08-11T13:58:55.881Z,93.10
2017-08-11T14:01:21.819Z,93.80
2017-08-11T14:03:48.488Z,93.70
2017-08-11T14:06:19.406Z,93.70
2017-08-11T14:08:46.128Z,93.50
2017-08-11T14:11:12.149Z,93.40
2017-08-11T14:13:38.063Z,93.50
2017-08-11T14:16:04.007Z,93.50
2017-08-11T14:18:30.003Z,94.10
2017-08-11T14:21:01.241Z,93.70
2017-08-11T14:23:33.365Z,93.70
2017-08-11T14:25:59.305Z,93.80
2017-08-11T14:28:26.022Z,93.90
2017-08-11T14:30:51.970Z,93.90
2017-08-11T14:33:17.953Z,93.40
2017-08-11T14:35:48.865Z,93.30
2017-08-11T14:38:15.552Z,93.20
2017-08-11T14:40:41.498Z,93.10
2017-08-11T14:43:07.466Z,92.90
2017-08-11T14:45:34.179Z,92.80
2017-08-11T14:48:00.141Z,92.80
2017-08-11T14:50:26.116Z,92.80
2017-08-11T14:52:52.084Z,93.20
2017-08-11T14:55:18.770Z,93.40
2017-08-11T14:57:44.757Z,93.40
2017-08-11T15:00:11.472Z,93.20
2017-08-11T15:02:37.474Z,93.20
2017-08-11T15:05:03.447Z,93.00
2017-08-11T15:07:31.421Z,92.80
2017-08-11T15:09:57.397Z,92.70
2017-08-11T15:15:13.893Z,92.50
2017-08-11T15:17:40.592Z,92.40
2017-08-11T15:20:06.601Z,92.40
2017-08-11T15:22:32.534Z,92.10
2017-08-11T15:24:58.500Z,92.10
2017-08-11T15:27:24.459Z,92.20
2017-08-11T15:29:50.410Z,92.10
2017-08-11T15:32:16.394Z,91.80
2017-08-11T15:34:43.195Z,92.10
2017-08-11T15:37:09.187Z,92.00
2017-08-11T15:39:35.151Z,92.30
2017-08-11T15:42:01.153Z,91.70
2017-08-11T15:44:27.110Z,91.60
2017-08-11T15:46:53.052Z,91.80
2017-08-11T15:49:19.022Z,92.10
2017-08-11T15:51:45.693Z,91.80
2017-08-11T15:54:11.733Z,91.80
2017-08-11T15:56:37.708Z,91.50
2017-08-11T15:59:03.650Z,91.50
2017-08-11T16:01:29.597Z,91.40
2017-08-11T16:03:55.529Z,91.10
2017-08-11T16:06:21.524Z,91.80
2017-08-11T16:08:56.210Z,91.70
2017-08-11T16:11:22.185Z,91.70
2017-08-11T16:13:48.159Z,92.20
2017-08-11T16:16:14.141Z,92.20
2017-08-11T16:18:40.237Z,91.90
2017-08-11T16:21:06.195Z,92.00
2017-08-11T16:23:32.889Z,91.90
2017-08-11T16:25:58.872Z,91.90
2017-08-11T16:28:24.877Z,91.90
2017-08-11T16:30:50.811Z,92.00
2017-08-11T16:33:16.751Z,92.30
2017-08-11T16:35:43.446Z,93.10
2017-08-11T16:38:19.573Z,92.70
2017-08-11T16:40:45.516Z,91.90
2017-08-11T16:43:11.451Z,91.80
2017-08-11T16:45:37.385Z,91.80
2017-08-11T16:48:03.334Z,92.00
2017-08-11T16:50:29.285Z,91.80
2017-08-11T16:52:55.990Z,92.60
2017-08-11T16:55:21.938Z,92.40
2017-08-11T16:57:47.937Z,92.20
2017-08-11T17:00:13.876Z,92.00
2017-08-11T17:02:39.848Z,92.70
2017-08-11T17:05:06.570Z,92.30
2017-08-11T17:07:32.527Z,92.30
2017-08-11T17:09:58.534Z,92.30
2017-08-11T17:12:25.240Z,93.00
2017-08-11T17:14:55.830Z,92.90
2017-08-11T17:17:21.837Z,92.60
2017-08-11T17:19:47.781Z,92.70
2017-08-11T17:22:14.583Z,92.70
2017-08-11T17:24:40.625Z,92.70
2017-08-11T17:27:07.366Z,92.20
2017-08-11T17:29:33.300Z,92.10
2017-08-11T17:31:59.280Z,92.20
2017-08-11T17:34:25.242Z,92.70
2017-08-11T17:36:51.218Z,92.80
2017-08-11T17:39:17.169Z,92.80
2017-08-11T17:41:43.174Z,92.40
2017-08-11T17:44:09.886Z,92.00
2017-08-11T17:46:35.901Z,92.00
2017-08-11T17:49:01.926Z,92.10
2017-08-11T17:51:27.880Z,91.20
2017-08-11T17:53:53.961Z,91.40
2017-08-11T17:56:20.096Z,91.30
2017-08-11T17:58:46.322Z,91.70
2017-08-11T18:01:12.307Z,91.00
2017-08-11T18:03:40.305Z,91.00
2017-08-11T18:06:07.003Z,91.10
2017-08-11T18:08:32.939Z,91.10
2017-08-11T18:10:58.930Z,91.20
2017-08-11T18:13:24.918Z,91.30
2017-08-11T18:15:50.862Z,91.20
2017-08-11T18:18:17.641Z,90.90
2017-08-11T18:20:43.566Z,90.80
2017-08-11T18:23:09.502Z,91.10
2017-08-11T18:25:35.420Z,91.20
2017-08-11T18:28:01.398Z,91.10
2017-08-11T18:30:28.087Z,91.50
2017-08-11T18:32:54.060Z,91.50
2017-08-11T18:35:21.076Z,92.00
2017-08-11T18:37:47.030Z,91.90
2017-08-11T18:40:13.088Z,91.10
2017-08-11T18:42:39.926Z,91.00
2017-08-11T18:45:05.900Z,91.00
2017-08-11T18:47:31.940Z,91.10
2017-08-11T18:49:57.862Z,91.20
2017-08-11T18:52:23.817Z,90.90
2017-08-11T18:54:49.784Z,91.00
2017-08-11T18:57:16.510Z,90.80
2017-08-11T18:59:42.470Z,90.80
2017-08-11T19:02:09.518Z,90.80
2017-08-11T19:04:36.230Z,90.80
2017-08-11T19:07:02.178Z,90.80
2017-08-11T19:09:35.623Z,90.60
2017-08-11T19:12:01.638Z,90.50
2017-08-11T19:14:27.646Z,90.90
2017-08-11T19:16:53.718Z,91.00
2017-08-11T19:19:19.719Z,90.80
2017-08-11T19:21:45.683Z,91.00
2017-08-11T19:24:12.266Z,91.30
2017-08-11T19:26:39.154Z,91.90
2017-08-11T19:29:05.293Z,92.20
2017-08-11T19:31:34.858Z,93.10
2017-08-11T19:34:04.107Z,95.10
2017-08-11T19:36:31.328Z,95.10
2017-08-11T19:38:58.186Z,95.60
2017-08-11T19:41:24.182Z,95.60
2017-08-11T19:43:53.603Z,95.70
2017-08-11T19:46:20.305Z,95.50
2017-08-11T19:48:46.261Z,95.50
2017-08-11T19:51:12.245Z,95.30
2017-08-11T19:53:38.185Z,95.20
2017-08-11T19:56:04.125Z,95.40
2017-08-11T19:58:30.088Z,95.30
2017-08-11T20:00:56.821Z,95.20
2017-08-11T20:03:23.526Z,95.20
2017-08-11T20:05:49.510Z,95.20
2017-08-11T20:08:16.243Z,95.90
2017-08-11T20:10:42.957Z,96.00
2017-08-11T20:13:08.913Z,96.00
2017-08-11T20:15:34.876Z,96.50
2017-08-11T20:18:00.866Z,97.00
2017-08-11T20:20:26.864Z,97.30
2017-08-11T20:22:52.830Z,97.60
2017-08-11T20:25:19.521Z,97.60
2017-08-11T20:27:47.575Z,97.50
2017-08-11T20:30:14.250Z,98.00
2017-08-11T20:32:40.214Z,98.00
2017-08-11T20:35:07.200Z,97.90
2017-08-11T20:37:33.151Z,98.30
2017-08-11T20:39:59.121Z,98.50
2017-08-11T20:42:25.091Z,98.80
2017-08-11T20:44:51.100Z,98.50
2017-08-11T20:47:17.852Z,99.60
2017-08-11T20:49:44.543Z,99.70
2017-08-11T20:52:10.507Z,99.60
2017-08-11T20:54:36.445Z,99.60
2017-08-11T20:57:03.143Z,99.90
2017-08-11T20:59:29.133Z,99.70
2017-08-11T21:02:01.437Z,99.70
2017-08-11T21:04:27.398Z,99.90
2017-08-11T21:06:54.144Z,99.90
2017-08-11T21:09:20.887Z,99.90
2017-08-11T21:11:46.828Z,99.90
2017-08-11T21:14:13.531Z,99.90
2017-08-11T21:16:39.555Z,99.90
2017-08-11T21:19:05.506Z,99.90
2017-08-11T21:21:31.512Z,99.90
2017-08-11T21:23:57.417Z,99.90
2017-08-11T21:26:23.387Z,99.90
2017-08-11T21:28:49.389Z,99.90
2017-08-11T21:31:15.342Z,99.90
2017-08-11T21:33:41.295Z,99.90
2017-08-11T21:36:07.996Z,99.90
2017-08-11T21:38:33.948Z,99.90
2017-08-11T21:40:59.918Z,99.90
2017-08-11T21:43:25.899Z,99.90
2017-08-11T21:45:51.858Z,99.90
2017-08-11T21:48:18.559Z,99.90
2017-08-11T21:50:50.988Z,99.90
2017-08-11T21:53:17.669Z,99.90
2017-08-11T21:55:43.638Z,99.90
2017-08-11T21:58:10.334Z,99.90
2017-08-11T22:00:36.295Z,99.90
2017-08-11T22:03:02.236Z,99.90
2017-08-11T22:05:28.173Z,99.90
2017-08-11T22:07:54.874Z,99.90
2017-08-11T22:10:20.849Z,99.90
2017-08-11T22:12:47.601Z,99.90
2017-08-11T22:15:14.354Z,99.90
2017-08-11T22:17:40.342Z,99.90
2017-08-11T22:20:06.518Z,99.90
2017-08-11T22:22:33.239Z,99.90
2017-08-11T22:24:59.181Z,99.90
2017-08-11T22:27:25.898Z,99.90
2017-08-11T22:29:51.874Z,99.90
2017-08-11T22:32:17.829Z,99.90
2017-08-11T22:34:43.764Z,99.90
2017-08-11T22:37:09.722Z,99.90
2017-08-11T22:39:35.716Z,99.90
2017-08-11T22:42:01.711Z,99.90
2017-08-11T22:44:27.705Z,99.90
2017-08-11T22:46:54.427Z,99.90
2017-08-11T22:49:20.382Z,99.90
2017-08-11T22:51:46.370Z,99.90
2017-08-11T22:54:12.336Z,99.90
2017-08-11T22:56:38.276Z,99.90
2017-08-11T22:59:04.974Z,99.90
2017-08-11T23:01:30.920Z,99.90
2017-08-11T23:03:56.854Z,99.90
2017-08-11T23:06:22.807Z,99.90
2017-08-11T23:08:48.756Z,99.90
2017-08-11T23:11:14.738Z,99.90
2017-08-11T23:13:40.698Z,99.90
2017-08-11T23:16:07.463Z,99.90
2017-08-11T23:18:33.435Z,99.90
2017-08-11T23:20:59.382Z,99.90
2017-08-11T23:23:25.336Z,99.90
2017-08-11T23:25:51.283Z,99.90
2017-08-11T23:28:17.221Z,99.90
2017-08-11T23:30:43.184Z,99.90
2017-08-11T23:33:09.129Z,99.90
2017-08-11T23:35:35.829Z,99.90
2017-08-11T23:38:01.780Z,99.90
2017-08-11T23:40:27.757Z,99.90
2017-08-11T23:42:53.714Z,99.90
2017-08-11T23:45:19.654Z,99.90
2017-08-11T23:47:45.605Z,99.90
2017-08-11T23:50:11.567Z,99.90
2017-08-11T23:52:37.527Z,99.90
2017-08-11T23:55:05.558Z,99.90
2017-08-11T23:57:31.503Z,99.90
2017-08-11T23:59:57.453Z,99.90
